sensor_id;sensor_type;location;lat;lon;timestamp;P1;durP1;ratioP1;P2;durP2;ratioP2
43226;SDS011;28839;52.404;9.808;2023-03-01T00:03:08;14.60;;;8.38;;
43226;SDS011;28839;52.404;9.808;2023-03-01T00:10:02;16.80;;;9.38;;
43226;SDS011;28839;52.404;9.808;2023-03-01T00:16:58;15.47;;;9.53;;
43226;SDS011;28839;52.404;9.808;2023-03-01T00:23:52;21.98;;;10.73;;
43226;SDS011;28839;52.404;9.808;2023-03-01T00:30:46;15.50;;;9.20;;
43226;SDS011;28839;52.404;9.808;2023-03-01T00:37:41;17.57;;;11.20;;
43226;SDS011;28839;52.404;9.808;2023-03-01T00:44:35;16.90;;;9.73;;
43226;SDS011;28839;52.404;9.808;2023-03-01T00:51:29;17.20;;;9.50;;
43226;SDS011;28839;52.404;9.808;2023-03-01T00:58:25;15.73;;;9.00;;
43226;SDS011;28839;52.404;9.808;2023-03-01T01:05:19;16.60;;;9.90;;
43226;SDS011;28839;52.404;9.808;2023-03-01T01:19:09;15.30;;;9.85;;
43226;SDS011;28839;52.404;9.808;2023-03-01T01:26:06;16.90;;;9.98;;
43226;SDS011;28839;52.404;9.808;2023-03-01T01:33:00;19.92;;;10.52;;
43226;SDS011;28839;52.404;9.808;2023-03-01T01:39:55;17.37;;;9.93;;
43226;SDS011;28839;52.404;9.808;2023-03-01T01:46:51;16.40;;;10.40;;
43226;SDS011;28839;52.404;9.808;2023-03-01T01:53:49;15.18;;;9.82;;
43226;SDS011;28839;52.404;9.808;2023-03-01T02:00:48;18.17;;;11.23;;
43226;SDS011;28839;52.404;9.808;2023-03-01T02:07:42;17.37;;;10.10;;
43226;SDS011;28839;52.404;9.808;2023-03-01T02:14:37;16.40;;;10.38;;
43226;SDS011;28839;52.404;9.808;2023-03-01T02:21:35;15.35;;;9.13;;
43226;SDS011;28839;52.404;9.808;2023-03-01T02:28:36;15.80;;;9.70;;
43226;SDS011;28839;52.404;9.808;2023-03-01T02:35:32;16.87;;;9.55;;
43226;SDS011;28839;52.404;9.808;2023-03-01T02:42:30;14.82;;;8.82;;
43226;SDS011;28839;52.404;9.808;2023-03-01T02:49:28;16.15;;;9.10;;
43226;SDS011;28839;52.404;9.808;2023-03-01T02:56:24;15.38;;;8.80;;
43226;SDS011;28839;52.404;9.808;2023-03-01T03:03:19;17.53;;;10.10;;
43226;SDS011;28839;52.404;9.808;2023-03-01T03:10:17;15.10;;;8.77;;
43226;SDS011;28839;52.404;9.808;2023-03-01T03:17:13;14.93;;;9.38;;
43226;SDS011;28839;52.404;9.808;2023-03-01T03:24:07;14.10;;;10.00;;
43226;SDS011;28839;52.404;9.808;2023-03-01T03:31:03;15.27;;;9.17;;
43226;SDS011;28839;52.404;9.808;2023-03-01T03:38:00;14.05;;;8.55;;
43226;SDS011;28839;52.404;9.808;2023-03-01T03:44:58;16.35;;;9.27;;
43226;SDS011;28839;52.404;9.808;2023-03-01T03:51:53;15.83;;;9.13;;
43226;SDS011;28839;52.404;9.808;2023-03-01T03:58:47;18.50;;;9.65;;
43226;SDS011;28839;52.404;9.808;2023-03-01T04:05:41;15.90;;;9.13;;
43226;SDS011;28839;52.404;9.808;2023-03-01T04:12:36;15.73;;;9.65;;
43226;SDS011;28839;52.404;9.808;2023-03-01T04:19:30;17.15;;;9.43;;
43226;SDS011;28839;52.404;9.808;2023-03-01T04:26:28;20.65;;;10.35;;
43226;SDS011;28839;52.404;9.808;2023-03-01T04:33:24;22.67;;;10.97;;
43226;SDS011;28839;52.404;9.808;2023-03-01T04:40:19;18.65;;;10.02;;
43226;SDS011;28839;52.404;9.808;2023-03-01T04:47:13;18.08;;;10.00;;
43226;SDS011;28839;52.404;9.808;2023-03-01T04:54:08;16.20;;;9.87;;
43226;SDS011;28839;52.404;9.808;2023-03-01T05:01:07;15.60;;;9.48;;
43226;SDS011;28839;52.404;9.808;2023-03-01T05:15:07;17.17;;;9.45;;
43226;SDS011;28839;52.404;9.808;2023-03-01T05:22:01;17.33;;;9.32;;
43226;SDS011;28839;52.404;9.808;2023-03-01T05:28:55;15.98;;;9.93;;
43226;SDS011;28839;52.404;9.808;2023-03-01T05:42:46;12.95;;;8.77;;
43226;SDS011;28839;52.404;9.808;2023-03-01T05:49:41;16.52;;;9.30;;
43226;SDS011;28839;52.404;9.808;2023-03-01T05:56:36;10.87;;;6.73;;
43226;SDS011;28839;52.404;9.808;2023-03-01T06:03:30;17.25;;;10.02;;
43226;SDS011;28839;52.404;9.808;2023-03-01T06:10:24;19.90;;;11.03;;
43226;SDS011;28839;52.404;9.808;2023-03-01T06:17:19;18.83;;;11.23;;
43226;SDS011;28839;52.404;9.808;2023-03-01T06:24:13;17.85;;;10.70;;
43226;SDS011;28839;52.404;9.808;2023-03-01T06:31:07;24.13;;;11.60;;
43226;SDS011;28839;52.404;9.808;2023-03-01T06:38:03;18.20;;;10.60;;
43226;SDS011;28839;52.404;9.808;2023-03-01T06:44:57;23.05;;;11.00;;
43226;SDS011;28839;52.404;9.808;2023-03-01T06:51:51;21.48;;;11.23;;
43226;SDS011;28839;52.404;9.808;2023-03-01T06:58:46;13.32;;;8.95;;
43226;SDS011;28839;52.404;9.808;2023-03-01T07:05:40;16.60;;;11.15;;
43226;SDS011;28839;52.404;9.808;2023-03-01T07:12:34;19.60;;;10.52;;
43226;SDS011;28839;52.404;9.808;2023-03-01T07:19:30;18.37;;;10.83;;
43226;SDS011;28839;52.404;9.808;2023-03-01T07:26:24;17.70;;;10.65;;
43226;SDS011;28839;52.404;9.808;2023-03-01T07:33:18;28.83;;;13.80;;
43226;SDS011;28839;52.404;9.808;2023-03-01T07:40:13;26.80;;;13.40;;
43226;SDS011;28839;52.404;9.808;2023-03-01T07:47:07;14.65;;;9.40;;
43226;SDS011;28839;52.404;9.808;2023-03-01T07:54:01;15.85;;;10.00;;
43226;SDS011;28839;52.404;9.808;2023-03-01T08:00:57;14.15;;;9.98;;
43226;SDS011;28839;52.404;9.808;2023-03-01T08:07:54;15.98;;;9.20;;
43226;SDS011;28839;52.404;9.808;2023-03-01T08:14:48;16.95;;;9.88;;
43226;SDS011;28839;52.404;9.808;2023-03-01T08:21:43;19.33;;;9.40;;
43226;SDS011;28839;52.404;9.808;2023-03-01T08:28:38;14.68;;;8.27;;
43226;SDS011;28839;52.404;9.808;2023-03-01T08:35:32;17.03;;;9.57;;
43226;SDS011;28839;52.404;9.808;2023-03-01T08:42:27;14.05;;;7.32;;
43226;SDS011;28839;52.404;9.808;2023-03-01T08:49:21;14.25;;;8.52;;
43226;SDS011;28839;52.404;9.808;2023-03-01T08:56:16;15.75;;;7.93;;
43226;SDS011;28839;52.404;9.808;2023-03-01T09:03:12;13.13;;;7.72;;
43226;SDS011;28839;52.404;9.808;2023-03-01T09:10:07;17.02;;;6.80;;
43226;SDS011;28839;52.404;9.808;2023-03-01T09:17:02;10.60;;;5.82;;
43226;SDS011;28839;52.404;9.808;2023-03-01T09:23:57;10.80;;;5.03;;
43226;SDS011;28839;52.404;9.808;2023-03-01T09:30:51;6.15;;;4.55;;
43226;SDS011;28839;52.404;9.808;2023-03-01T09:37:45;9.82;;;5.43;;
43226;SDS011;28839;52.404;9.808;2023-03-01T09:44:42;9.30;;;5.07;;
43226;SDS011;28839;52.404;9.808;2023-03-01T09:51:41;8.15;;;4.57;;
43226;SDS011;28839;52.404;9.808;2023-03-01T09:58:41;8.80;;;5.60;;
43226;SDS011;28839;52.404;9.808;2023-03-01T10:12:44;8.57;;;5.72;;
43226;SDS011;28839;52.404;9.808;2023-03-01T10:19:39;9.97;;;6.07;;
43226;SDS011;28839;52.404;9.808;2023-03-01T10:26:39;9.07;;;6.05;;
43226;SDS011;28839;52.404;9.808;2023-03-01T10:33:40;9.07;;;6.03;;
43226;SDS011;28839;52.404;9.808;2023-03-01T10:40:35;8.33;;;5.27;;
43226;SDS011;28839;52.404;9.808;2023-03-01T10:47:43;9.00;;;4.72;;
43226;SDS011;28839;52.404;9.808;2023-03-01T10:54:37;7.87;;;4.57;;
43226;SDS011;28839;52.404;9.808;2023-03-01T11:01:34;8.18;;;5.20;;
43226;SDS011;28839;52.404;9.808;2023-03-01T11:08:31;7.95;;;4.12;;
43226;SDS011;28839;52.404;9.808;2023-03-01T11:15:27;4.60;;;3.42;;
43226;SDS011;28839;52.404;9.808;2023-03-01T11:22:22;6.50;;;3.72;;
43226;SDS011;28839;52.404;9.808;2023-03-01T11:29:21;6.33;;;3.80;;
43226;SDS011;28839;52.404;9.808;2023-03-01T11:36:23;10.80;;;3.83;;
43226;SDS011;28839;52.404;9.808;2023-03-01T11:43:24;8.60;;;4.22;;
43226;SDS011;28839;52.404;9.808;2023-03-01T11:50:27;7.70;;;3.35;;
43226;SDS011;28839;52.404;9.808;2023-03-01T11:57:33;5.90;;;3.33;;
43226;SDS011;28839;52.404;9.808;2023-03-01T12:04:42;5.85;;;3.35;;
43226;SDS011;28839;52.404;9.808;2023-03-01T12:11:59;7.72;;;3.87;;
43226;SDS011;28839;52.404;9.808;2023-03-01T12:19:12;8.27;;;3.97;;
43226;SDS011;28839;52.404;9.808;2023-03-01T12:26:19;7.27;;;3.93;;
43226;SDS011;28839;52.404;9.808;2023-03-01T12:33:19;6.47;;;4.15;;
43226;SDS011;28839;52.404;9.808;2023-03-01T12:47:44;11.02;;;4.50;;
43226;SDS011;28839;52.404;9.808;2023-03-01T12:54:56;8.35;;;4.80;;
43226;SDS011;28839;52.404;9.808;2023-03-01T13:01:54;9.93;;;4.43;;
43226;SDS011;28839;52.404;9.808;2023-03-01T13:08:56;6.40;;;4.32;;
43226;SDS011;28839;52.404;9.808;2023-03-01T13:16:11;8.25;;;4.85;;
43226;SDS011;28839;52.404;9.808;2023-03-01T13:23:23;6.25;;;4.20;;
43226;SDS011;28839;52.404;9.808;2023-03-01T13:37:42;7.47;;;4.43;;
43226;SDS011;28839;52.404;9.808;2023-03-01T13:44:36;5.00;;;3.80;;
43226;SDS011;28839;52.404;9.808;2023-03-01T13:51:31;7.97;;;4.27;;
43226;SDS011;28839;52.404;9.808;2023-03-01T13:58:28;5.68;;;3.80;;
43226;SDS011;28839;52.404;9.808;2023-03-01T14:05:23;5.05;;;3.90;;
43226;SDS011;28839;52.404;9.808;2023-03-01T14:12:21;5.50;;;3.67;;
43226;SDS011;28839;52.404;9.808;2023-03-01T14:26:20;5.05;;;2.97;;
43226;SDS011;28839;52.404;9.808;2023-03-01T14:33:19;5.45;;;3.15;;
43226;SDS011;28839;52.404;9.808;2023-03-01T14:40:21;5.85;;;2.85;;
43226;SDS011;28839;52.404;9.808;2023-03-01T14:47:20;6.50;;;3.40;;
43226;SDS011;28839;52.404;9.808;2023-03-01T14:54:21;5.22;;;3.50;;
43226;SDS011;28839;52.404;9.808;2023-03-01T15:01:19;5.03;;;3.40;;
43226;SDS011;28839;52.404;9.808;2023-03-01T15:08:16;7.50;;;4.55;;
43226;SDS011;28839;52.404;9.808;2023-03-01T15:22:30;6.40;;;3.87;;
43226;SDS011;28839;52.404;9.808;2023-03-01T15:29:25;5.18;;;3.40;;
43226;SDS011;28839;52.404;9.808;2023-03-01T15:36:32;6.25;;;3.70;;
43226;SDS011;28839;52.404;9.808;2023-03-01T15:43:39;7.37;;;3.33;;
43226;SDS011;28839;52.404;9.808;2023-03-01T15:50:35;5.47;;;3.25;;
43226;SDS011;28839;52.404;9.808;2023-03-01T15:57:31;7.03;;;3.17;;
43226;SDS011;28839;52.404;9.808;2023-03-01T16:04:27;6.25;;;3.55;;
43226;SDS011;28839;52.404;9.808;2023-03-01T16:11:21;5.47;;;3.35;;
43226;SDS011;28839;52.404;9.808;2023-03-01T16:18:15;9.65;;;3.87;;
43226;SDS011;28839;52.404;9.808;2023-03-01T16:25:10;4.45;;;3.30;;
43226;SDS011;28839;52.404;9.808;2023-03-01T16:32:04;6.57;;;3.78;;
43226;SDS011;28839;52.404;9.808;2023-03-01T16:38:58;6.07;;;3.60;;
43226;SDS011;28839;52.404;9.808;2023-03-01T16:45:56;8.57;;;3.67;;
43226;SDS011;28839;52.404;9.808;2023-03-01T16:52:50;7.70;;;4.55;;
43226;SDS011;28839;52.404;9.808;2023-03-01T16:59:44;7.22;;;4.62;;
43226;SDS011;28839;52.404;9.808;2023-03-01T17:06:39;8.48;;;5.47;;
43226;SDS011;28839;52.404;9.808;2023-03-01T17:13:33;9.27;;;5.75;;
43226;SDS011;28839;52.404;9.808;2023-03-01T17:27:38;8.40;;;4.82;;
43226;SDS011;28839;52.404;9.808;2023-03-01T17:34:33;8.93;;;4.97;;
43226;SDS011;28839;52.404;9.808;2023-03-01T17:48:23;7.07;;;4.85;;
43226;SDS011;28839;52.404;9.808;2023-03-01T17:55:17;10.32;;;4.72;;
43226;SDS011;28839;52.404;9.808;2023-03-01T18:02:12;11.47;;;5.60;;
43226;SDS011;28839;52.404;9.808;2023-03-01T18:09:07;11.15;;;6.47;;
43226;SDS011;28839;52.404;9.808;2023-03-01T18:16:06;13.38;;;6.40;;
43226;SDS011;28839;52.404;9.808;2023-03-01T18:23:00;14.15;;;6.30;;
43226;SDS011;28839;52.404;9.808;2023-03-01T18:29:56;8.20;;;6.28;;
43226;SDS011;28839;52.404;9.808;2023-03-01T18:36:50;13.57;;;6.85;;
43226;SDS011;28839;52.404;9.808;2023-03-01T18:43:45;15.30;;;7.53;;
43226;SDS011;28839;52.404;9.808;2023-03-01T18:50:40;12.15;;;5.12;;
43226;SDS011;28839;52.404;9.808;2023-03-01T18:57:34;11.77;;;5.87;;
43226;SDS011;28839;52.404;9.808;2023-03-01T19:04:28;10.18;;;6.00;;
43226;SDS011;28839;52.404;9.808;2023-03-01T19:11:23;10.23;;;4.43;;
43226;SDS011;28839;52.404;9.808;2023-03-01T19:18:18;5.47;;;3.40;;
43226;SDS011;28839;52.404;9.808;2023-03-01T19:25:12;7.30;;;3.70;;
43226;SDS011;28839;52.404;9.808;2023-03-01T19:32:07;6.93;;;4.07;;
43226;SDS011;28839;52.404;9.808;2023-03-01T19:39:02;6.40;;;3.30;;
43226;SDS011;28839;52.404;9.808;2023-03-01T19:45:57;6.10;;;3.92;;
43226;SDS011;28839;52.404;9.808;2023-03-01T19:52:52;4.87;;;3.60;;
43226;SDS011;28839;52.404;9.808;2023-03-01T20:06:40;6.15;;;4.03;;
43226;SDS011;28839;52.404;9.808;2023-03-01T20:13:38;6.93;;;4.25;;
43226;SDS011;28839;52.404;9.808;2023-03-01T20:20:32;9.82;;;5.70;;
43226;SDS011;28839;52.404;9.808;2023-03-01T20:27:26;8.18;;;5.18;;
43226;SDS011;28839;52.404;9.808;2023-03-01T20:34:21;8.95;;;4.97;;
43226;SDS011;28839;52.404;9.808;2023-03-01T20:41:15;9.30;;;5.47;;
43226;SDS011;28839;52.404;9.808;2023-03-01T20:48:09;11.27;;;5.57;;
43226;SDS011;28839;52.404;9.808;2023-03-01T20:55:04;8.85;;;5.40;;
43226;SDS011;28839;52.404;9.808;2023-03-01T21:02:00;10.38;;;5.30;;
43226;SDS011;28839;52.404;9.808;2023-03-01T21:08:54;7.90;;;4.68;;
43226;SDS011;28839;52.404;9.808;2023-03-01T21:15:53;10.55;;;5.45;;
43226;SDS011;28839;52.404;9.808;2023-03-01T21:22:49;14.13;;;5.62;;
43226;SDS011;28839;52.404;9.808;2023-03-01T21:29:43;11.27;;;5.80;;
43226;SDS011;28839;52.404;9.808;2023-03-01T21:36:39;12.82;;;6.45;;
43226;SDS011;28839;52.404;9.808;2023-03-01T21:43:34;12.73;;;6.10;;
43226;SDS011;28839;52.404;9.808;2023-03-01T21:50:29;11.65;;;6.30;;
43226;SDS011;28839;52.404;9.808;2023-03-01T21:57:24;11.35;;;5.93;;
43226;SDS011;28839;52.404;9.808;2023-03-01T22:04:18;9.75;;;5.57;;
43226;SDS011;28839;52.404;9.808;2023-03-01T22:11:12;10.45;;;5.32;;
43226;SDS011;28839;52.404;9.808;2023-03-01T22:18:07;11.18;;;6.28;;
43226;SDS011;28839;52.404;9.808;2023-03-01T22:25:02;10.88;;;5.53;;
43226;SDS011;28839;52.404;9.808;2023-03-01T22:31:56;8.60;;;5.55;;
43226;SDS011;28839;52.404;9.808;2023-03-01T22:38:52;8.60;;;5.57;;
43226;SDS011;28839;52.404;9.808;2023-03-01T22:45:51;11.45;;;5.45;;
43226;SDS011;28839;52.404;9.808;2023-03-01T22:52:44;9.27;;;5.37;;
43226;SDS011;28839;52.404;9.808;2023-03-01T22:59:40;11.80;;;6.65;;
43226;SDS011;28839;52.404;9.808;2023-03-01T23:06:33;36.80;;;15.00;;
43226;SDS011;28839;52.404;9.808;2023-03-01T23:13:41;11.27;;;6.95;;
43226;SDS011;28839;52.404;9.808;2023-03-01T23:20:37;12.45;;;7.12;;
43226;SDS011;28839;52.404;9.808;2023-03-01T23:27:31;13.68;;;7.65;;
43226;SDS011;28839;52.404;9.808;2023-03-01T23:34:28;18.02;;;8.13;;
43226;SDS011;28839;52.404;9.808;2023-03-01T23:41:23;13.52;;;8.55;;
43226;SDS011;28839;52.404;9.808;2023-03-01T23:48:19;12.27;;;7.75;;
43226;SDS011;28839;52.404;9.808;2023-03-01T23:55:13;13.17;;;7.43;;
